createdAt,value
2018-12-15T00:01:56.818Z,26.73
2018-12-15T00:04:25.253Z,28.87
2018-12-15T00:06:53.651Z,28.17
2018-12-15T00:09:22.189Z,26.57
2018-12-15T00:11:50.582Z,31.90
2018-12-15T00:14:18.963Z,27.87
2018-12-15T00:16:47.323Z,27.63
2018-12-15T00:19:15.709Z,30.33
2018-12-15T00:21:44.112Z,27.57
2018-12-15T00:24:12.584Z,29.43
2018-12-15T00:26:40.993Z,24.97
2018-12-15T00:29:09.380Z,23.50
2018-12-15T00:31:37.773Z,26.03
2018-12-15T00:34:06.128Z,24.50
2018-12-15T00:36:34.548Z,25.50
2018-12-15T00:39:03.667Z,27.33
2018-12-15T00:41:32.096Z,25.23
2018-12-15T00:44:00.487Z,26.83
2018-12-15T00:46:28.976Z,26.07
2018-12-15T00:48:57.458Z,26.00
2018-12-15T00:51:25.926Z,23.93
2018-12-15T00:53:54.328Z,28.50
2018-12-15T00:56:22.700Z,23.93
2018-12-15T00:58:51.052Z,25.63
2018-12-15T01:01:19.488Z,27.80
2018-12-15T01:03:47.966Z,27.03
2018-12-15T01:06:16.335Z,24.63
2018-12-15T01:08:51.362Z,27.37
2018-12-15T01:11:19.747Z,27.57
2018-12-15T01:13:48.116Z,25.17
2018-12-15T01:16:16.493Z,29.60
2018-12-15T01:18:44.892Z,24.80
2018-12-15T01:21:13.207Z,27.87
2018-12-15T01:23:41.623Z,22.60
2018-12-15T01:26:09.976Z,24.47
2018-12-15T01:28:38.360Z,26.93
2018-12-15T01:31:06.719Z,23.83
2018-12-15T01:33:35.095Z,24.43
2018-12-15T01:36:03.481Z,24.70
2018-12-15T01:38:31.872Z,25.97
2018-12-15T01:41:00.208Z,26.37
2018-12-15T01:43:28.588Z,25.50
2018-12-15T01:45:56.923Z,25.00
2018-12-15T01:48:25.327Z,26.20
2018-12-15T01:50:53.659Z,25.63
2018-12-15T01:53:22.012Z,24.40
2018-12-15T01:55:50.447Z,24.67
2018-12-15T01:58:18.811Z,25.07
2018-12-15T02:00:47.167Z,27.47
2018-12-15T02:03:15.630Z,23.73
2018-12-15T02:05:44.001Z,24.60
2018-12-15T02:08:12.426Z,22.70
2018-12-15T02:10:40.836Z,23.23
2018-12-15T02:13:09.199Z,26.10
2018-12-15T02:15:37.560Z,25.67
2018-12-15T02:18:05.896Z,25.90
2018-12-15T02:20:34.340Z,26.50
2018-12-15T02:23:02.874Z,24.37
2018-12-15T02:25:31.240Z,25.90
2018-12-15T02:27:59.592Z,25.50
2018-12-15T02:30:27.960Z,27.40
2018-12-15T02:32:56.359Z,24.80
2018-12-15T02:35:24.739Z,29.60
2018-12-15T02:37:53.247Z,25.77
2018-12-15T02:40:21.807Z,29.57
2018-12-15T02:42:50.164Z,27.33
2018-12-15T02:45:18.547Z,29.00
2018-12-15T02:47:47.005Z,24.33
2018-12-15T02:50:15.425Z,22.77
2018-12-15T02:52:43.895Z,26.50
2018-12-15T02:55:12.231Z,24.50
2018-12-15T02:57:40.608Z,23.67
2018-12-15T03:00:09.087Z,27.63
2018-12-15T03:02:37.469Z,28.33
2018-12-15T03:05:06.061Z,29.73
2018-12-15T03:07:34.423Z,26.03
2018-12-15T03:10:02.925Z,25.43
2018-12-15T03:12:31.303Z,27.87
2018-12-15T03:14:59.643Z,29.37
2018-12-15T03:17:27.996Z,30.00
2018-12-15T03:20:01.080Z,29.73
2018-12-15T03:22:29.523Z,29.97
2018-12-15T03:24:57.879Z,31.43
2018-12-15T03:27:26.245Z,30.13
2018-12-15T03:29:54.594Z,28.10
2018-12-15T03:32:23.028Z,29.97
2018-12-15T03:34:51.453Z,31.63
2018-12-15T03:37:19.807Z,30.73
2018-12-15T03:39:48.139Z,28.97
2018-12-15T03:42:16.478Z,31.37
2018-12-15T03:44:45.116Z,28.03
2018-12-15T03:47:13.507Z,30.00
2018-12-15T03:49:41.948Z,32.73
2018-12-15T03:52:10.297Z,31.27
2018-12-15T03:54:38.640Z,32.70
2018-12-15T03:57:07.142Z,30.90
2018-12-15T03:59:35.884Z,31.83
2018-12-15T04:02:04.274Z,31.93
2018-12-15T04:04:33.276Z,31.23
2018-12-15T04:07:01.756Z,31.87
2018-12-15T04:09:30.189Z,30.17
2018-12-15T04:11:58.523Z,32.37
2018-12-15T04:14:27.398Z,31.33
2018-12-15T04:16:55.803Z,32.07
2018-12-15T04:19:24.147Z,35.03
2018-12-15T04:21:52.521Z,35.90
2018-12-15T04:24:21.129Z,30.70
2018-12-15T04:26:49.519Z,33.60
2018-12-15T04:29:17.894Z,35.50
2018-12-15T04:31:46.227Z,34.90
2018-12-15T04:34:14.663Z,43.13
2018-12-15T04:36:42.991Z,29.67
2018-12-15T04:39:11.425Z,36.17
2018-12-15T04:41:39.804Z,36.80
2018-12-15T04:44:08.262Z,36.83
2018-12-15T04:46:36.622Z,37.33
2018-12-15T04:49:04.950Z,32.93
2018-12-15T04:51:33.327Z,38.93
2018-12-15T04:54:01.739Z,39.13
2018-12-15T04:56:30.123Z,39.03
2018-12-15T04:58:58.487Z,42.50
2018-12-15T05:01:27.020Z,43.40
2018-12-15T05:03:55.463Z,40.17
2018-12-15T05:06:23.864Z,38.63
2018-12-15T05:08:52.423Z,42.03
2018-12-15T05:11:20.803Z,37.83
2018-12-15T05:13:49.259Z,38.43
2018-12-15T05:16:17.819Z,33.13
2018-12-15T05:18:46.173Z,36.53
2018-12-15T05:21:14.615Z,41.23
2018-12-15T05:23:42.954Z,38.63
2018-12-15T05:26:11.311Z,42.53
2018-12-15T05:28:39.688Z,39.20
2018-12-15T05:31:08.091Z,41.80
2018-12-15T05:33:36.463Z,39.33
2018-12-15T05:36:04.972Z,40.70
2018-12-15T05:38:33.329Z,40.23
2018-12-15T05:41:01.664Z,39.93
2018-12-15T05:43:30.083Z,43.03
2018-12-15T05:45:58.417Z,45.20
2018-12-15T05:48:26.780Z,43.00
2018-12-15T05:50:55.199Z,39.40
2018-12-15T05:53:23.556Z,44.00
2018-12-15T05:55:51.960Z,42.53
2018-12-15T05:58:20.347Z,43.33
2018-12-15T06:00:48.930Z,40.20
2018-12-15T06:03:17.404Z,41.63
2018-12-15T06:05:45.746Z,45.30
2018-12-15T06:08:14.139Z,47.43
2018-12-15T06:10:42.576Z,44.13
2018-12-15T06:13:10.952Z,41.27
2018-12-15T06:15:39.364Z,46.43
2018-12-15T06:18:07.828Z,46.50
2018-12-15T06:20:36.234Z,48.83
2018-12-15T06:23:04.603Z,50.83
2018-12-15T06:25:33.008Z,46.43
2018-12-15T06:28:01.410Z,47.23
2018-12-15T06:30:29.755Z,48.40
2018-12-15T06:32:58.115Z,50.47
2018-12-15T06:35:26.463Z,39.80
2018-12-15T06:37:54.868Z,45.47
2018-12-15T06:40:23.226Z,44.90
2018-12-15T06:42:52.596Z,53.50
2018-12-15T06:45:20.995Z,52.03
2018-12-15T06:47:49.394Z,48.37
2018-12-15T06:50:17.946Z,52.40
2018-12-15T06:52:46.343Z,53.03
2018-12-15T06:55:14.715Z,50.67
2018-12-15T06:57:49.374Z,55.13
2018-12-15T07:00:17.862Z,51.97
2018-12-15T07:02:46.331Z,51.43
2018-12-15T07:05:14.791Z,47.57
2018-12-15T07:07:43.187Z,54.20
2018-12-15T07:10:11.601Z,51.07
2018-12-15T07:12:39.963Z,52.30
2018-12-15T07:15:08.600Z,56.20
2018-12-15T07:17:37.393Z,53.53
2018-12-15T07:20:06.275Z,50.87
2018-12-15T07:22:34.723Z,48.97
2018-12-15T07:25:03.242Z,52.23
2018-12-15T07:27:31.826Z,55.53
2018-12-15T07:30:00.208Z,55.93
2018-12-15T07:32:28.562Z,53.73
2018-12-15T07:35:00.988Z,57.60
2018-12-15T07:37:27.481Z,54.83
2018-12-15T07:39:55.864Z,54.40
2018-12-15T07:42:24.347Z,53.97
2018-12-15T07:44:52.699Z,54.87
2018-12-15T07:47:21.130Z,56.97
2018-12-15T07:49:49.560Z,49.17
2018-12-15T07:52:18.122Z,56.30
2018-12-15T07:54:46.481Z,50.80
2018-12-15T07:57:14.835Z,53.83
2018-12-15T07:59:43.313Z,56.90
2018-12-15T08:02:11.708Z,54.87
2018-12-15T08:04:40.130Z,57.83
2018-12-15T08:07:08.653Z,59.27
2018-12-15T08:09:37.231Z,55.40
2018-12-15T08:12:11.171Z,58.43
2018-12-15T08:14:39.600Z,54.57
2018-12-15T08:17:07.985Z,56.93
2018-12-15T08:19:36.371Z,57.00
2018-12-15T08:22:04.827Z,60.40
2018-12-15T08:24:33.167Z,52.40
2018-12-15T08:27:01.688Z,57.90
2018-12-15T08:29:30.026Z,55.60
2018-12-15T08:31:58.395Z,58.30
2018-12-15T08:34:26.845Z,54.37
2018-12-15T08:36:55.207Z,59.27
2018-12-15T08:39:23.600Z,56.40
2018-12-15T08:41:51.972Z,58.30
2018-12-15T08:44:20.419Z,58.70
2018-12-15T08:46:48.845Z,55.80
2018-12-15T08:49:17.252Z,48.07
2018-12-15T08:51:45.760Z,57.30
2018-12-15T08:54:14.215Z,54.37
2018-12-15T08:56:42.620Z,52.20
2018-12-15T08:59:10.951Z,53.07
2018-12-15T09:01:39.320Z,55.77
2018-12-15T09:04:07.853Z,57.47
2018-12-15T09:06:36.396Z,53.10
2018-12-15T09:09:06.564Z,54.30
2018-12-15T09:11:34.997Z,55.77
2018-12-15T09:14:03.365Z,49.27
2018-12-15T09:16:31.986Z,56.43
2018-12-15T09:19:00.571Z,53.37
2018-12-15T09:21:29.086Z,53.17
2018-12-15T09:23:57.443Z,50.43
2018-12-15T09:26:25.828Z,56.60
2018-12-15T09:28:54.205Z,51.87
2018-12-15T09:31:22.615Z,53.30
2018-12-15T09:33:51.011Z,51.20
2018-12-15T09:36:19.374Z,54.47
2018-12-15T09:38:47.751Z,51.03
2018-12-15T09:41:16.187Z,55.00
2018-12-15T09:43:44.679Z,53.30
2018-12-15T09:46:13.124Z,53.20
2018-12-15T09:48:41.520Z,50.30
2018-12-15T09:51:09.940Z,50.37
2018-12-15T09:53:38.489Z,50.80
2018-12-15T09:56:07.086Z,47.97
2018-12-15T09:58:35.528Z,46.83
2018-12-15T10:01:04.004Z,49.07
2018-12-15T10:03:32.452Z,48.23
2018-12-15T10:06:01.388Z,49.43
2018-12-15T10:08:29.832Z,49.47
2018-12-15T10:10:58.421Z,51.57
2018-12-15T10:13:26.824Z,50.87
2018-12-15T10:15:55.332Z,49.70
2018-12-15T10:18:23.919Z,51.37
2018-12-15T10:20:52.316Z,44.50
2018-12-15T10:23:20.680Z,44.53
2018-12-15T10:25:49.096Z,48.30
2018-12-15T10:28:17.539Z,47.07
2018-12-15T10:30:51.498Z,42.80
2018-12-15T10:33:19.941Z,47.23
2018-12-15T10:35:48.404Z,43.57
2018-12-15T10:38:16.791Z,42.70
2018-12-15T10:40:45.310Z,43.07
2018-12-15T10:43:13.676Z,42.20
2018-12-15T10:45:42.216Z,46.93
2018-12-15T10:48:10.649Z,42.67
2018-12-15T10:50:39.059Z,41.97
2018-12-15T10:53:07.508Z,40.30
2018-12-15T10:55:35.910Z,39.83
2018-12-15T10:58:04.397Z,39.80
2018-12-15T11:00:38.160Z,38.80
2018-12-15T11:03:06.649Z,36.97
2018-12-15T11:05:35.027Z,38.90
2018-12-15T11:08:03.729Z,37.23
2018-12-15T11:10:32.086Z,37.87
2018-12-15T11:13:00.444Z,38.77
2018-12-15T11:15:28.863Z,33.67
2018-12-15T11:17:57.229Z,36.87
2018-12-15T11:20:25.700Z,35.30
2018-12-15T11:22:54.327Z,33.40
2018-12-15T11:25:22.707Z,35.00
2018-12-15T11:27:51.076Z,35.23
2018-12-15T11:30:19.485Z,36.23
2018-12-15T11:32:47.904Z,33.60
2018-12-15T11:35:16.272Z,30.80
2018-12-15T11:37:44.707Z,33.70
2018-12-15T11:40:13.097Z,31.93
2018-12-15T11:42:41.628Z,28.87
2018-12-15T11:45:10.071Z,32.57
2018-12-15T11:47:38.586Z,31.40
2018-12-15T11:50:07.323Z,33.13
2018-12-15T11:52:35.687Z,27.63
2018-12-15T11:55:04.180Z,22.17
2018-12-15T11:57:32.721Z,24.40
2018-12-15T12:00:01.110Z,27.47
2018-12-15T12:02:31.997Z,23.57
2018-12-15T12:04:59.979Z,23.00
2018-12-15T12:07:28.822Z,24.60
2018-12-15T12:09:57.607Z,20.83
2018-12-15T12:12:26.440Z,17.83
2018-12-15T12:14:55.486Z,19.20
2018-12-15T12:17:24.124Z,20.70
2018-12-15T12:19:52.588Z,20.47
2018-12-15T12:22:20.993Z,18.90
2018-12-15T12:24:49.436Z,12.90
2018-12-15T12:27:18.301Z,16.23
2018-12-15T12:29:47.459Z,19.17
2018-12-15T12:32:16.115Z,18.93
2018-12-15T12:34:44.747Z,14.87
2018-12-15T12:37:13.219Z,17.10
2018-12-15T12:39:41.589Z,18.47
2018-12-15T12:42:09.942Z,14.20
2018-12-15T12:44:38.411Z,12.23
2018-12-15T12:47:06.766Z,13.20
2018-12-15T12:49:35.165Z,9.50
2018-12-15T12:52:03.525Z,10.47
2018-12-15T12:54:31.951Z,8.80
2018-12-15T12:57:00.821Z,8.80
2018-12-15T12:59:29.215Z,12.27
2018-12-15T13:01:57.663Z,11.70
2018-12-15T13:04:26.056Z,10.60
2018-12-15T13:06:54.563Z,8.13
2018-12-15T13:09:22.947Z,7.60
2018-12-15T13:11:51.415Z,9.10
2018-12-15T13:14:19.881Z,9.33
2018-12-15T13:16:48.258Z,8.50
2018-12-15T13:19:17.072Z,10.50
2018-12-15T13:21:45.692Z,10.97
2018-12-15T13:24:14.131Z,10.93
2018-12-15T13:26:42.475Z,11.43
2018-12-15T13:29:10.854Z,10.03
2018-12-15T13:31:39.299Z,11.83
2018-12-15T13:34:07.719Z,12.87
2018-12-15T13:36:36.072Z,11.93
2018-12-15T13:39:05.312Z,11.10
2018-12-15T13:41:33.944Z,11.80
2018-12-15T13:44:02.316Z,11.07
2018-12-15T13:46:30.736Z,13.40
2018-12-15T13:48:59.105Z,12.83
2018-12-15T13:51:27.491Z,14.33
2018-12-15T13:53:55.979Z,16.40
2018-12-15T13:56:24.359Z,12.63
2018-12-15T13:58:52.710Z,12.97
2018-12-15T14:01:21.144Z,13.90
2018-12-15T14:03:49.517Z,15.17
2018-12-15T14:06:17.888Z,13.00
2018-12-15T14:08:46.357Z,15.43
2018-12-15T14:11:14.734Z,14.73
2018-12-15T14:13:43.088Z,13.60
2018-12-15T14:16:11.540Z,14.90
2018-12-15T14:18:39.862Z,16.37
2018-12-15T14:21:10.273Z,19.63
2018-12-15T14:23:38.657Z,17.63
2018-12-15T14:26:07.051Z,15.93
2018-12-15T14:28:35.523Z,15.87
2018-12-15T14:31:04.030Z,18.87
2018-12-15T14:33:32.493Z,16.30
2018-12-15T14:36:00.958Z,18.93
2018-12-15T14:38:29.296Z,17.03
2018-12-15T14:40:57.708Z,17.17
2018-12-15T14:43:26.131Z,21.10
2018-12-15T14:45:54.649Z,17.90
2018-12-15T14:48:23.061Z,21.47
2018-12-15T14:50:51.443Z,18.40
2018-12-15T14:53:19.923Z,18.03
2018-12-15T14:55:48.375Z,20.13
2018-12-15T14:58:16.840Z,21.33
2018-12-15T15:00:45.199Z,20.57
2018-12-15T15:03:13.581Z,18.47
2018-12-15T15:05:41.956Z,19.23
2018-12-15T15:08:10.336Z,23.17
2018-12-15T15:10:38.926Z,20.73
2018-12-15T15:13:07.295Z,22.07
2018-12-15T15:15:35.652Z,19.07
2018-12-15T15:18:04.109Z,18.83
2018-12-15T15:20:32.472Z,21.03
2018-12-15T15:23:00.859Z,18.93
2018-12-15T15:25:29.208Z,20.03
2018-12-15T15:27:57.584Z,18.03
2018-12-15T15:30:26.024Z,18.47
2018-12-15T15:32:54.403Z,15.17
2018-12-15T15:35:22.907Z,20.33
2018-12-15T15:37:51.308Z,17.70
2018-12-15T15:40:19.765Z,16.07
2018-12-15T15:42:48.108Z,19.20
2018-12-15T15:45:16.610Z,15.17
2018-12-15T15:47:44.972Z,18.23
2018-12-15T15:50:13.741Z,16.73
2018-12-15T15:52:42.156Z,20.87
2018-12-15T15:55:10.534Z,19.63
2018-12-15T15:57:38.873Z,23.93
2018-12-15T16:00:09.154Z,20.10
2018-12-15T16:02:37.572Z,21.83
2018-12-15T16:05:06.461Z,22.10
2018-12-15T16:07:34.932Z,21.90
2018-12-15T16:10:03.807Z,22.00
2018-12-15T16:12:32.159Z,20.63
2018-12-15T16:15:00.533Z,21.67
2018-12-15T16:17:28.909Z,22.87
2018-12-15T16:19:57.339Z,23.40
2018-12-15T16:22:25.828Z,22.10
2018-12-15T16:24:54.297Z,22.30
2018-12-15T16:27:22.670Z,22.50
2018-12-15T16:29:51.084Z,22.57
2018-12-15T16:32:19.451Z,23.60
2018-12-15T16:34:47.815Z,21.90
2018-12-15T16:37:16.291Z,21.27
2018-12-15T16:39:44.755Z,23.23
2018-12-15T16:42:13.349Z,20.40
2018-12-15T16:44:41.714Z,24.53
2018-12-15T16:47:10.076Z,24.10
2018-12-15T16:49:38.470Z,24.53
2018-12-15T16:52:06.997Z,21.37
2018-12-15T16:54:35.379Z,22.47
2018-12-15T16:57:03.914Z,21.40
2018-12-15T16:59:32.283Z,23.03
2018-12-15T17:02:00.663Z,23.97
2018-12-15T17:04:29.097Z,24.77
2018-12-15T17:06:57.513Z,23.20
2018-12-15T17:09:25.882Z,19.83
2018-12-15T17:11:54.335Z,25.00
2018-12-15T17:14:22.969Z,21.30
2018-12-15T17:16:51.421Z,22.27
2018-12-15T17:19:20.313Z,24.43
2018-12-15T17:21:48.692Z,27.27
2018-12-15T17:24:17.114Z,23.00
2018-12-15T17:26:45.541Z,21.97
2018-12-15T17:29:13.911Z,22.50
2018-12-15T17:31:42.347Z,22.90
2018-12-15T17:34:11.005Z,22.23
2018-12-15T17:36:39.456Z,22.10
2018-12-15T17:39:08.342Z,22.23
2018-12-15T17:41:36.731Z,24.63
2018-12-15T17:44:05.110Z,25.00
2018-12-15T17:46:33.764Z,22.43
2018-12-15T17:49:02.198Z,23.13
2018-12-15T17:51:30.557Z,23.73
2018-12-15T17:53:58.923Z,24.90
2018-12-15T17:56:27.283Z,25.47
2018-12-15T17:58:55.671Z,23.17
2018-12-15T18:01:24.097Z,22.77
2018-12-15T18:03:52.562Z,24.70
2018-12-15T18:06:20.921Z,24.67
2018-12-15T18:08:49.307Z,22.17
2018-12-15T18:11:17.737Z,25.00
2018-12-15T18:13:46.259Z,25.70
2018-12-15T18:16:14.592Z,25.07
2018-12-15T18:18:43.053Z,26.07
2018-12-15T18:21:12.355Z,25.20
2018-12-15T18:23:40.780Z,22.20
2018-12-15T18:26:09.199Z,24.93
2018-12-15T18:28:37.570Z,23.90
2018-12-15T18:31:05.945Z,27.27
2018-12-15T18:33:37.128Z,24.73
2018-12-15T18:36:04.790Z,22.17
2018-12-15T18:38:33.167Z,23.93
2018-12-15T18:41:01.559Z,26.77
2018-12-15T18:43:29.983Z,27.67
2018-12-15T18:45:58.375Z,21.80
2018-12-15T18:48:26.753Z,19.67
2018-12-15T18:50:55.116Z,23.57
2018-12-15T18:53:23.490Z,21.87
2018-12-15T18:55:51.818Z,22.73
2018-12-15T18:58:20.222Z,19.97
2018-12-15T19:00:48.571Z,23.10
2018-12-15T19:03:16.964Z,23.43
2018-12-15T19:05:45.875Z,22.37
2018-12-15T19:08:14.222Z,23.60
2018-12-15T19:10:42.603Z,19.70
2018-12-15T19:13:10.959Z,20.33
2018-12-15T19:15:40.255Z,20.23
2018-12-15T19:18:08.611Z,19.60
2018-12-15T19:20:38.360Z,21.20
2018-12-15T19:23:06.783Z,21.00
2018-12-15T19:25:35.144Z,19.63
2018-12-15T19:28:03.612Z,17.83
2018-12-15T19:30:32.238Z,19.60
2018-12-15T19:33:00.568Z,19.47
2018-12-15T19:35:29.002Z,18.23
2018-12-15T19:37:57.345Z,18.27
2018-12-15T19:40:25.680Z,17.63
2018-12-15T19:42:53.992Z,17.20
2018-12-15T19:45:22.336Z,16.10
2018-12-15T19:47:50.766Z,19.83
2018-12-15T19:50:19.151Z,15.77
2018-12-15T19:52:47.571Z,16.07
2018-12-15T19:55:15.951Z,14.73
2018-12-15T19:57:44.461Z,13.13
2018-12-15T20:00:13.016Z,14.43
2018-12-15T20:02:41.498Z,14.63
2018-12-15T20:05:10.112Z,17.17
2018-12-15T20:07:39.909Z,15.67
2018-12-15T20:10:08.634Z,15.13
2018-12-15T20:12:37.107Z,12.60
2018-12-15T20:15:05.803Z,13.27
2018-12-15T20:17:34.242Z,13.73
2018-12-15T20:20:02.632Z,17.00
2018-12-15T20:22:30.988Z,13.87
2018-12-15T20:24:59.372Z,15.13
2018-12-15T20:27:27.751Z,15.30
2018-12-15T20:29:56.139Z,16.50
2018-12-15T20:32:24.500Z,17.23
2018-12-15T20:34:52.894Z,15.37
2018-12-15T20:37:21.287Z,17.33
2018-12-15T20:39:49.636Z,14.03
2018-12-15T20:42:18.232Z,14.63
2018-12-15T20:44:46.627Z,15.60
2018-12-15T20:47:15.027Z,14.27
2018-12-15T20:49:43.382Z,16.57
2018-12-15T20:52:11.740Z,14.13
2018-12-15T20:54:40.107Z,17.23
2018-12-15T20:57:08.552Z,15.60
2018-12-15T20:59:36.939Z,16.17
2018-12-15T21:02:05.438Z,13.47
2018-12-15T21:04:33.787Z,14.23
2018-12-15T21:07:02.176Z,14.47
2018-12-15T21:09:31.260Z,16.37
2018-12-15T21:11:59.667Z,14.10
2018-12-15T21:14:28.030Z,16.73
2018-12-15T21:16:56.439Z,14.87
2018-12-15T21:19:24.781Z,13.63
2018-12-15T21:21:53.247Z,14.23
2018-12-15T21:24:21.707Z,16.73
2018-12-15T21:26:50.055Z,17.97
2018-12-15T21:29:18.531Z,15.83
2018-12-15T21:31:47.016Z,17.30
2018-12-15T21:34:15.423Z,17.83
2018-12-15T21:36:43.846Z,16.63
2018-12-15T21:39:12.199Z,14.90
2018-12-15T21:41:40.685Z,18.70
2018-12-15T21:44:09.078Z,14.90
2018-12-15T21:46:37.560Z,19.00
2018-12-15T21:49:05.891Z,19.97
2018-12-15T21:51:34.279Z,15.67
2018-12-15T21:54:02.676Z,17.70
2018-12-15T21:56:31.125Z,18.23
2018-12-15T21:58:59.477Z,17.57
2018-12-15T22:01:27.935Z,18.37
2018-12-15T22:03:56.318Z,17.70
2018-12-15T22:06:24.691Z,18.00
2018-12-15T22:08:53.063Z,19.37
2018-12-15T22:11:21.425Z,18.03
2018-12-15T22:13:49.837Z,19.07
2018-12-15T22:16:18.337Z,21.93
2018-12-15T22:18:46.693Z,17.63
2018-12-15T22:21:15.051Z,21.87
2018-12-15T22:23:43.475Z,25.10
2018-12-15T22:26:11.864Z,17.33
2018-12-15T22:28:40.196Z,20.17
2018-12-15T22:31:08.587Z,20.17
2018-12-15T22:33:37.110Z,21.00
2018-12-15T22:36:05.500Z,20.23
2018-12-15T22:38:34.375Z,21.33
2018-12-15T22:41:03.656Z,21.47
2018-12-15T22:43:33.239Z,21.20
2018-12-15T22:46:01.596Z,20.40
2018-12-15T22:48:30.128Z,22.23
2018-12-15T22:50:59.409Z,21.30
2018-12-15T22:53:27.793Z,22.23
2018-12-15T22:55:56.219Z,20.27
2018-12-15T22:58:24.693Z,18.90
2018-12-15T23:00:59.503Z,17.53
2018-12-15T23:03:27.975Z,25.20
2018-12-15T23:05:56.359Z,21.93
2018-12-15T23:08:24.819Z,23.27
2018-12-15T23:10:53.967Z,21.50
2018-12-15T23:13:22.621Z,24.00
2018-12-15T23:15:51.048Z,24.87
2018-12-15T23:18:19.439Z,26.77
2018-12-15T23:20:47.956Z,25.20
2018-12-15T23:23:16.389Z,28.10
2018-12-15T23:25:44.776Z,26.03
2018-12-15T23:28:13.969Z,30.27
2018-12-15T23:30:42.348Z,26.63
2018-12-15T23:33:10.713Z,28.37
2018-12-15T23:35:39.079Z,28.33
2018-12-15T23:38:07.455Z,27.00
2018-12-15T23:40:35.879Z,30.83
2018-12-15T23:43:04.360Z,28.00
2018-12-15T23:45:32.764Z,28.93
2018-12-15T23:48:01.098Z,29.07
2018-12-15T23:50:29.451Z,27.47
2018-12-15T23:52:57.883Z,29.70
2018-12-15T23:55:26.547Z,25.00
2018-12-15T23:57:55.253Z,28.63
